createdAt,value
2017-05-24T03:12:35.639Z,70.59
2017-05-24T03:13:37.060Z,70.84
2017-05-24T03:14:39.474Z,71.70
2017-05-24T03:15:41.828Z,72.08
2017-05-24T03:16:42.283Z,71.32
2017-05-24T03:17:44.383Z,71.13
2017-05-24T03:18:45.090Z,71.89
2017-05-24T03:19:46.551Z,71.80
2017-05-24T03:20:47.980Z,71.22
2017-05-24T03:21:50.329Z,71.99
2017-05-24T03:22:50.793Z,71.22
2017-05-24T03:23:52.232Z,70.97
2017-05-24T03:24:53.654Z,70.87
2017-05-24T03:25:55.078Z,70.59
2017-05-24T03:26:56.512Z,71.16
2017-05-24T03:27:57.958Z,70.40
2017-05-24T03:28:59.382Z,70.50
2017-05-24T03:30:00.811Z,70.97
2017-05-24T03:31:02.245Z,71.45
2017-05-24T03:32:03.679Z,70.87
2017-05-24T03:33:05.108Z,72.79
2017-05-24T03:34:06.542Z,71.07
2017-05-24T03:35:07.972Z,71.26
2017-05-24T03:36:09.407Z,71.83
2017-05-24T03:37:10.835Z,71.64
2017-05-24T03:38:12.263Z,73.27
2017-05-24T03:39:13.694Z,71.93
2017-05-24T03:40:15.121Z,71.83
2017-05-24T03:41:16.552Z,71.26
2017-05-24T03:42:17.983Z,72.02
2017-05-24T03:43:19.413Z,70.11
2017-05-24T03:44:20.845Z,69.44
2017-05-24T03:45:22.277Z,70.40
2017-05-24T03:46:23.702Z,69.54
2017-05-24T03:47:25.127Z,69.35
2017-05-24T03:48:26.551Z,70.87
2017-05-24T03:49:27.981Z,69.92
2017-05-24T03:50:29.413Z,71.36
2017-05-24T03:51:30.848Z,70.68
2017-05-24T03:52:32.910Z,70.50
2017-05-24T03:53:34.348Z,70.68
2017-05-24T03:54:35.794Z,70.11
2017-05-24T03:55:37.223Z,71.70
2017-05-24T03:56:38.647Z,71.89
2017-05-24T03:57:40.077Z,71.03
2017-05-24T03:58:41.502Z,70.94
2017-05-24T03:59:42.934Z,70.59
2017-05-24T04:00:44.364Z,70.59
2017-05-24T04:01:45.792Z,70.59
2017-05-24T04:02:47.223Z,70.78
2017-05-24T04:03:48.644Z,70.50
2017-05-24T04:04:50.109Z,71.93
2017-05-24T04:05:51.543Z,72.88
2017-05-24T04:06:52.973Z,71.64
2017-05-24T04:07:54.447Z,71.64
2017-05-24T04:08:55.874Z,71.80
2017-05-24T04:09:58.060Z,72.47
2017-05-24T04:11:01.029Z,74.19
2017-05-24T04:12:02.459Z,74.19
2017-05-24T04:13:03.899Z,72.47
2017-05-24T04:14:06.217Z,73.52
2017-05-24T04:15:08.273Z,73.90
2017-05-24T04:16:10.440Z,74.48
2017-05-24T04:17:12.427Z,73.90
2017-05-24T04:18:13.856Z,72.66
2017-05-24T04:19:15.282Z,73.08
2017-05-24T04:20:16.720Z,73.08
2017-05-24T04:21:18.155Z,72.85
2017-05-24T04:22:19.579Z,72.88
2017-05-24T04:23:21.012Z,73.36
2017-05-24T04:24:22.441Z,72.79
2017-05-24T04:25:23.871Z,73.17
2017-05-24T04:26:25.311Z,73.17
2017-05-24T04:27:26.743Z,73.90
2017-05-24T04:28:28.178Z,74.38
2017-05-24T04:29:29.607Z,73.36
2017-05-24T04:30:31.043Z,73.94
2017-05-24T04:31:32.483Z,74.32
2017-05-24T04:32:33.917Z,73.65
2017-05-24T04:33:35.354Z,74.32
2017-05-24T04:34:36.785Z,74.22
2017-05-24T04:35:38.215Z,74.41
2017-05-24T04:36:41.307Z,74.99
2017-05-24T04:37:43.617Z,76.57
2017-05-24T04:38:45.538Z,76.96
2017-05-24T04:39:46.972Z,78.16
2017-05-24T04:40:49.361Z,78.07
2017-05-24T04:41:50.427Z,79.41
2017-05-24T04:42:51.859Z,79.60
2017-05-24T04:43:54.857Z,79.50
2017-05-24T04:44:56.217Z,79.69
2017-05-24T04:45:57.651Z,79.31
2017-05-24T04:47:01.550Z,78.55
2017-05-24T04:48:02.993Z,79.31
2017-05-24T04:49:04.423Z,79.31
2017-05-24T04:50:05.856Z,79.60
2017-05-24T04:51:07.288Z,79.41
2017-05-24T04:52:08.736Z,79.88
2017-05-24T04:53:10.164Z,79.16
2017-05-24T04:54:11.594Z,80.27
2017-05-24T04:55:13.039Z,78.20
2017-05-24T04:56:14.478Z,78.39
2017-05-24T04:57:15.922Z,77.69
2017-05-24T04:58:17.346Z,78.11
2017-05-24T04:59:18.779Z,78.78
2017-05-24T05:00:20.216Z,77.82
2017-05-24T05:01:21.662Z,77.72
2017-05-24T05:02:23.096Z,77.92
2017-05-24T05:03:24.536Z,78.30
2017-05-24T05:04:25.972Z,78.01
2017-05-24T05:05:27.393Z,78.78
2017-05-24T05:06:28.830Z,78.01
2017-05-24T05:07:30.265Z,78.39
2017-05-24T05:08:31.711Z,77.25
2017-05-24T05:09:33.143Z,77.44
2017-05-24T05:10:34.574Z,77.53
2017-05-24T05:11:36.008Z,78.20
2017-05-24T05:12:37.436Z,77.72
2017-05-24T05:13:38.862Z,77.92
2017-05-24T05:14:40.293Z,77.82
2017-05-24T05:15:41.723Z,78.01
2017-05-24T05:16:43.150Z,79.16
2017-05-24T05:17:44.586Z,76.62
2017-05-24T05:18:46.019Z,77.76
2017-05-24T05:19:47.449Z,78.43
2017-05-24T05:20:48.882Z,76.33
2017-05-24T05:21:50.311Z,77.82
2017-05-24T05:22:51.738Z,78.58
2017-05-24T05:23:53.169Z,78.11
2017-05-24T05:24:54.599Z,80.02
2017-05-24T05:25:56.027Z,79.44
2017-05-24T05:26:57.464Z,78.72
2017-05-24T05:27:58.896Z,79.58
2017-05-24T05:29:00.325Z,78.34
2017-05-24T05:30:01.754Z,79.29
2017-05-24T05:31:04.474Z,79.05
2017-05-24T05:32:06.553Z,78.57
2017-05-24T05:33:08.939Z,76.42
2017-05-24T05:34:10.375Z,76.84
2017-05-24T05:35:11.805Z,76.08
2017-05-24T05:36:13.235Z,76.18
2017-05-24T05:37:14.674Z,76.84
2017-05-24T05:38:16.106Z,76.65
2017-05-24T05:39:18.262Z,77.99
2017-05-24T05:40:19.699Z,77.51
2017-05-24T05:41:21.137Z,76.75
2017-05-24T05:42:22.567Z,76.84
2017-05-24T05:43:24.004Z,76.75
2017-05-24T05:44:25.435Z,76.37
2017-05-24T05:45:26.867Z,75.79
2017-05-24T05:46:28.299Z,76.27
2017-05-24T05:47:29.725Z,76.56
2017-05-24T05:48:31.958Z,75.02
2017-05-24T05:49:33.969Z,76.40
2017-05-24T05:50:36.103Z,75.83
2017-05-24T05:51:37.536Z,75.73
2017-05-24T05:52:38.964Z,74.20
2017-05-24T05:53:40.398Z,73.24
2017-05-24T05:54:42.794Z,72.09
2017-05-24T05:55:44.981Z,71.23
2017-05-24T05:56:47.235Z,73.15
2017-05-24T05:57:48.661Z,73.19
2017-05-24T05:58:50.633Z,72.13
2017-05-24T05:59:52.070Z,73.09
2017-05-24T06:00:54.103Z,73.76
2017-05-24T06:01:55.535Z,73.28
2017-05-24T06:02:57.820Z,75.26
2017-05-24T06:03:59.262Z,74.43
2017-05-24T06:05:01.618Z,72.71
2017-05-24T06:06:03.888Z,73.95
2017-05-24T06:07:05.887Z,73.28
2017-05-24T06:08:07.410Z,72.42
2017-05-24T06:09:10.195Z,71.17
2017-05-24T06:10:13.371Z,71.27
2017-05-24T06:11:14.801Z,70.89
2017-05-24T06:12:16.888Z,70.70
2017-05-24T06:13:18.320Z,71.08
2017-05-24T06:14:19.765Z,70.92
2017-05-24T06:15:21.192Z,70.98
2017-05-24T06:16:22.630Z,71.50
2017-05-24T06:17:24.060Z,70.06
2017-05-24T06:18:25.490Z,70.06
2017-05-24T06:19:26.924Z,70.06
2017-05-24T06:20:28.363Z,68.59
2017-05-24T06:21:29.791Z,69.10
2017-05-24T06:22:31.230Z,70.03
2017-05-24T06:23:32.654Z,69.54
2017-05-24T06:24:34.086Z,69.96
2017-05-24T06:25:35.514Z,70.83
2017-05-24T06:26:36.948Z,71.02
2017-05-24T06:27:38.384Z,70.64
2017-05-24T06:28:39.818Z,70.44
2017-05-24T06:29:41.258Z,69.48
2017-05-24T06:30:42.688Z,69.48
2017-05-24T06:31:44.118Z,70.06
2017-05-24T06:32:45.546Z,70.15
2017-05-24T06:33:46.985Z,70.92
2017-05-24T06:34:48.424Z,69.29
2017-05-24T06:35:49.862Z,69.01
2017-05-24T06:36:51.300Z,69.48
2017-05-24T06:37:52.734Z,69.71
2017-05-24T06:38:54.168Z,70.00
2017-05-24T06:39:55.595Z,69.81
2017-05-24T06:40:57.037Z,70.00
2017-05-24T06:41:58.468Z,68.24
2017-05-24T06:42:59.909Z,68.62
2017-05-24T06:44:01.340Z,68.37
2017-05-24T06:45:02.777Z,72.20
2017-05-24T06:46:04.213Z,69.20
2017-05-24T06:47:05.641Z,69.90
2017-05-24T06:48:07.092Z,69.13
2017-05-24T06:49:08.508Z,70.25
2017-05-24T06:50:09.945Z,69.71
2017-05-24T06:51:11.376Z,69.42
2017-05-24T06:52:12.812Z,67.60
2017-05-24T06:53:14.255Z,67.02
2017-05-24T06:54:15.703Z,66.93
2017-05-24T06:55:18.117Z,68.75
2017-05-24T06:56:19.544Z,69.04
2017-05-24T06:57:21.846Z,69.71
2017-05-24T06:58:23.287Z,69.23
2017-05-24T06:59:24.723Z,68.56
2017-05-24T07:00:26.153Z,69.71
2017-05-24T07:01:27.693Z,68.56
2017-05-24T07:02:29.125Z,67.69
2017-05-24T07:03:30.553Z,67.02
2017-05-24T07:04:32.053Z,68.46
2017-05-24T07:05:33.488Z,69.33
2017-05-24T07:06:34.922Z,68.08
2017-05-24T07:07:36.352Z,68.08
2017-05-24T07:08:37.847Z,67.79
2017-05-24T07:09:39.280Z,67.35
2017-05-24T07:10:40.717Z,68.46
2017-05-24T07:11:42.149Z,67.02
2017-05-24T07:12:43.589Z,68.46
2017-05-24T07:13:45.808Z,67.83
2017-05-24T07:14:47.235Z,67.35
2017-05-24T07:15:48.670Z,66.77
2017-05-24T07:16:50.121Z,68.69
2017-05-24T07:17:51.559Z,67.35
2017-05-24T07:18:52.991Z,67.16
2017-05-24T07:19:54.426Z,67.06
2017-05-24T07:20:55.863Z,68.59
2017-05-24T07:21:57.310Z,69.40
2017-05-24T07:22:58.742Z,66.58
2017-05-24T07:24:00.175Z,67.63
2017-05-24T07:25:01.608Z,66.19
2017-05-24T07:26:04.469Z,65.33
2017-05-24T07:27:05.904Z,64.18
2017-05-24T07:28:07.337Z,64.37
2017-05-24T07:29:08.775Z,65.81
2017-05-24T07:30:10.208Z,65.91
2017-05-24T07:31:11.643Z,65.52
2017-05-24T07:32:13.082Z,66.77
2017-05-24T07:33:14.559Z,66.29
2017-05-24T07:34:16.169Z,66.52
2017-05-24T07:35:17.602Z,67.57
2017-05-24T07:36:19.032Z,67.19
2017-05-24T07:37:20.467Z,67.67
2017-05-24T07:38:21.911Z,68.63
2017-05-24T07:39:23.339Z,65.05
2017-05-24T07:40:24.773Z,63.42
2017-05-24T07:41:26.209Z,62.96
2017-05-24T07:42:27.644Z,63.45
2017-05-24T07:43:29.074Z,64.22
2017-05-24T07:44:30.512Z,65.08
2017-05-24T07:45:31.949Z,63.16
2017-05-24T07:46:33.386Z,63.64
2017-05-24T07:47:34.820Z,63.73
2017-05-24T07:48:36.250Z,63.35
2017-05-24T07:49:37.690Z,63.28
2017-05-24T07:50:40.538Z,61.62
2017-05-24T07:51:41.993Z,63.09
2017-05-24T07:52:43.427Z,65.30
2017-05-24T07:53:44.864Z,62.13
2017-05-24T07:54:46.302Z,62.42
2017-05-24T07:55:47.733Z,63.38
2017-05-24T07:56:49.169Z,62.32
2017-05-24T07:57:50.610Z,63.67
2017-05-24T07:58:52.046Z,61.84
2017-05-24T07:59:53.477Z,60.78
2017-05-24T08:00:54.913Z,60.50
2017-05-24T08:01:56.353Z,59.92
2017-05-24T08:02:57.791Z,59.16
2017-05-24T08:03:59.219Z,62.10
2017-05-24T08:05:00.650Z,62.19
2017-05-24T08:06:02.085Z,63.06
2017-05-24T08:07:03.520Z,63.03
2017-05-24T08:08:04.978Z,62.16
2017-05-24T08:09:06.411Z,62.65
2017-05-24T08:10:07.846Z,64.09
2017-05-24T08:11:09.276Z,64.28
2017-05-24T08:12:10.711Z,63.03
2017-05-24T08:13:12.147Z,63.89
2017-05-24T08:14:13.588Z,65.11
2017-05-24T08:15:15.019Z,65.59
2017-05-24T08:16:16.458Z,65.39
2017-05-24T08:17:17.890Z,65.30
2017-05-24T08:18:19.323Z,64.72
2017-05-24T08:19:20.765Z,65.11
2017-05-24T08:20:22.198Z,65.49
2017-05-24T08:21:23.636Z,65.43
2017-05-24T08:22:25.069Z,65.30
2017-05-24T08:23:26.507Z,64.95
2017-05-24T08:24:27.939Z,65.52
2017-05-24T08:25:29.367Z,65.43
2017-05-24T08:26:30.794Z,65.72
2017-05-24T08:27:32.227Z,64.95
2017-05-24T08:28:33.667Z,65.23
2017-05-24T08:29:35.104Z,64.85
2017-05-24T08:30:36.547Z,65.43
2017-05-24T08:31:37.984Z,63.79
2017-05-24T08:32:39.416Z,64.56
2017-05-24T08:33:40.859Z,63.70
2017-05-24T08:34:42.297Z,64.47
2017-05-24T08:35:43.733Z,64.76
2017-05-24T08:36:45.168Z,66.96
2017-05-24T08:37:46.599Z,65.72
2017-05-24T08:38:48.045Z,64.95
2017-05-24T08:39:49.471Z,64.18
2017-05-24T08:40:50.907Z,63.16
2017-05-24T08:41:52.336Z,64.40
2017-05-24T08:42:53.775Z,63.92
2017-05-24T08:43:55.206Z,64.37
2017-05-24T08:44:56.649Z,64.85
2017-05-24T08:45:58.085Z,66.03
2017-05-24T08:46:59.522Z,63.73
2017-05-24T08:48:00.954Z,63.45
2017-05-24T08:49:02.400Z,63.45
2017-05-24T08:50:03.828Z,63.73
2017-05-24T08:51:05.259Z,63.73
2017-05-24T08:52:06.695Z,65.08
2017-05-24T08:53:08.143Z,63.06
2017-05-24T08:54:09.562Z,62.48
2017-05-24T08:55:11.001Z,62.90
2017-05-24T08:56:12.439Z,64.31
2017-05-24T08:57:13.877Z,65.17
2017-05-24T08:58:15.315Z,64.63
2017-05-24T08:59:16.748Z,63.19
2017-05-24T09:00:18.244Z,63.57
2017-05-24T09:01:19.686Z,63.76
2017-05-24T09:02:21.156Z,63.86
2017-05-24T09:03:22.593Z,61.87
2017-05-24T09:04:24.029Z,62.99
2017-05-24T09:05:25.468Z,62.35
2017-05-24T09:06:26.911Z,62.74
2017-05-24T09:07:28.356Z,62.26
2017-05-24T09:08:29.787Z,61.81
2017-05-24T09:09:31.225Z,60.14
2017-05-24T09:10:32.656Z,62.16
2017-05-24T09:11:34.100Z,61.78
2017-05-24T09:12:35.533Z,60.72
2017-05-24T09:13:36.971Z,62.45
2017-05-24T09:14:38.406Z,61.97
2017-05-24T09:15:39.845Z,62.77
2017-05-24T09:16:41.276Z,63.15
2017-05-24T09:17:42.710Z,64.31
2017-05-24T09:18:44.143Z,61.23
2017-05-24T09:19:45.592Z,60.17
2017-05-24T09:20:47.030Z,61.52
2017-05-24T09:21:48.515Z,63.92
2017-05-24T09:22:49.954Z,61.26
2017-05-24T09:23:51.405Z,60.69
2017-05-24T09:24:52.849Z,61.61
2017-05-24T09:25:54.283Z,62.00
2017-05-24T09:26:55.725Z,62.68
2017-05-24T09:27:57.161Z,63.12
2017-05-24T09:28:58.601Z,63.15
2017-05-24T09:30:00.061Z,60.78
2017-05-24T09:31:01.505Z,61.26
2017-05-24T09:32:02.931Z,61.74
2017-05-24T09:33:04.400Z,62.03
2017-05-24T09:34:05.845Z,61.36
2017-05-24T09:35:07.289Z,60.91
2017-05-24T09:36:08.732Z,61.68
2017-05-24T09:37:10.203Z,62.64
2017-05-24T09:38:11.642Z,61.29
2017-05-24T09:39:13.079Z,59.85
2017-05-24T09:40:14.521Z,59.08
2017-05-24T09:41:15.960Z,59.01
2017-05-24T09:42:17.399Z,59.49
2017-05-24T09:43:18.838Z,58.89
2017-05-24T09:44:20.291Z,61.49
2017-05-24T09:45:21.724Z,61.04
2017-05-24T09:46:23.161Z,60.46
2017-05-24T09:47:24.592Z,59.27
2017-05-24T09:48:26.042Z,58.95
2017-05-24T09:49:27.476Z,59.08
2017-05-24T09:50:28.931Z,58.98
2017-05-24T09:51:30.405Z,61.32
2017-05-24T09:52:31.844Z,61.77
2017-05-24T09:53:33.279Z,59.59
2017-05-24T09:54:34.714Z,59.43
2017-05-24T09:55:36.155Z,60.30
2017-05-24T09:56:37.587Z,61.07
2017-05-24T09:57:39.039Z,58.82
2017-05-24T09:58:40.467Z,58.89
2017-05-24T09:59:41.907Z,59.49
2017-05-24T10:00:43.344Z,59.30
2017-05-24T10:01:44.780Z,59.40
2017-05-24T10:02:46.224Z,60.17
2017-05-24T10:03:47.656Z,60.36
2017-05-24T10:04:49.089Z,61.04
2017-05-24T10:05:50.547Z,59.88
2017-05-24T10:06:51.992Z,60.75
2017-05-24T10:07:53.431Z,61.71
2017-05-24T10:08:54.861Z,63.25
2017-05-24T10:09:56.346Z,62.19
2017-05-24T10:10:57.778Z,61.35
2017-05-24T10:11:59.220Z,60.68
2017-05-24T10:13:00.659Z,62.22
2017-05-24T10:14:02.109Z,60.97
2017-05-24T10:15:03.546Z,61.74
2017-05-24T10:16:04.990Z,60.32
2017-05-24T10:17:06.423Z,60.42
2017-05-24T10:18:07.864Z,61.96
2017-05-24T10:19:09.296Z,61.87
2017-05-24T10:20:10.744Z,62.35
2017-05-24T10:21:12.189Z,59.62
2017-05-24T10:22:13.628Z,61.83
2017-05-24T10:23:15.059Z,62.67
2017-05-24T10:24:16.519Z,60.58
2017-05-24T10:25:17.951Z,63.34
2017-05-24T10:26:19.385Z,62.19
2017-05-24T10:27:20.820Z,64.05
2017-05-24T10:28:22.264Z,64.92
2017-05-24T10:29:23.711Z,63.18
2017-05-24T10:30:25.156Z,63.85
2017-05-24T10:31:26.588Z,63.76
2017-05-24T10:32:28.039Z,62.12
2017-05-24T10:33:29.474Z,62.60
2017-05-24T10:34:30.907Z,62.12
2017-05-24T10:35:32.349Z,64.69
2017-05-24T10:36:33.852Z,67.19
2017-05-24T10:37:35.296Z,65.94
2017-05-24T10:38:36.733Z,65.33
2017-05-24T10:39:38.175Z,63.25
2017-05-24T10:40:39.611Z,63.22
2017-05-24T10:41:41.053Z,63.64
2017-05-24T10:42:42.495Z,65.14
2017-05-24T10:43:43.934Z,64.56
2017-05-24T10:44:45.368Z,63.34
2017-05-24T10:45:46.812Z,65.37
2017-05-24T10:46:48.256Z,64.59
2017-05-24T10:47:49.696Z,65.37
2017-05-24T10:48:51.135Z,65.85
2017-05-24T10:49:52.579Z,65.46
2017-05-24T10:50:54.143Z,65.56
2017-05-24T10:51:55.591Z,64.21
2017-05-24T10:52:57.054Z,65.62
2017-05-24T10:53:58.500Z,66.39
2017-05-24T10:54:59.943Z,66.07
2017-05-24T10:56:01.382Z,66.78
2017-05-24T10:57:02.824Z,67.07
2017-05-24T10:58:04.260Z,64.95
2017-05-24T10:59:05.697Z,66.10
2017-05-24T11:00:07.143Z,66.68
2017-05-24T11:01:08.580Z,67.16
2017-05-24T11:02:10.062Z,67.93
2017-05-24T11:03:11.498Z,68.32
2017-05-24T11:04:12.937Z,70.05
2017-05-24T11:05:14.381Z,69.57
2017-05-24T11:06:15.814Z,67.51
2017-05-24T11:07:17.263Z,66.94
2017-05-24T11:08:18.699Z,68.09
2017-05-24T11:09:20.155Z,67.51
2017-05-24T11:10:21.597Z,68.76
2017-05-24T11:11:23.031Z,68.03
2017-05-24T11:12:24.471Z,66.30
2017-05-24T11:13:25.917Z,66.81
2017-05-24T11:14:27.357Z,65.27
2017-05-24T11:15:28.799Z,66.33
2017-05-24T11:16:30.231Z,66.71
2017-05-24T11:17:31.666Z,66.42
2017-05-24T11:18:33.100Z,64.02
2017-05-24T11:19:34.535Z,63.34
2017-05-24T11:20:35.977Z,66.33
2017-05-24T11:21:37.409Z,66.42
2017-05-24T11:22:38.854Z,65.27
2017-05-24T11:23:40.357Z,67.39
2017-05-24T11:24:41.798Z,67.19
2017-05-24T11:25:43.246Z,67.26
2017-05-24T11:26:44.681Z,66.94
2017-05-24T11:27:46.132Z,67.90
2017-05-24T11:28:47.567Z,67.65
2017-05-24T11:29:49.007Z,68.57
2017-05-24T11:30:50.445Z,66.78
2017-05-24T11:31:51.931Z,65.85
2017-05-24T11:32:53.356Z,65.14
2017-05-24T11:33:54.788Z,67.26
2017-05-24T11:34:56.228Z,67.26
2017-05-24T11:35:57.661Z,68.35
2017-05-24T11:36:59.109Z,67.93
2017-05-24T11:38:00.555Z,69.18
2017-05-24T11:39:01.987Z,70.24
2017-05-24T11:40:03.425Z,68.86
2017-05-24T11:41:04.859Z,69.06
2017-05-24T11:42:06.314Z,68.76
2017-05-24T11:43:07.752Z,70.37
2017-05-24T11:44:09.181Z,70.75
2017-05-24T11:45:10.613Z,70.75
2017-05-24T11:46:12.082Z,70.94
2017-05-24T11:47:13.515Z,71.52
2017-05-24T11:48:14.953Z,70.65
2017-05-24T11:49:16.395Z,71.33
2017-05-24T11:50:17.830Z,71.71
2017-05-24T11:51:19.291Z,71.52
2017-05-24T11:52:20.723Z,72.09
2017-05-24T11:53:22.164Z,72.58
2017-05-24T11:54:23.600Z,72.38
2017-05-24T11:55:25.042Z,71.91
2017-05-24T11:56:26.553Z,70.30
2017-05-24T11:57:27.996Z,70.40
2017-05-24T11:58:29.433Z,70.11
2017-05-24T11:59:30.864Z,70.11
2017-05-24T12:00:32.300Z,70.94
2017-05-24T12:01:33.744Z,70.46
2017-05-24T12:02:35.177Z,70.75
2017-05-24T12:03:36.614Z,69.89
2017-05-24T12:04:38.044Z,69.79
2017-05-24T12:05:39.489Z,69.63
2017-05-24T12:06:40.928Z,69.53
2017-05-24T12:07:42.442Z,69.82
2017-05-24T12:08:43.876Z,67.83
2017-05-24T12:09:45.317Z,67.55
2017-05-24T12:10:46.753Z,68.70
2017-05-24T12:11:48.196Z,68.60
2017-05-24T12:12:49.642Z,68.70
2017-05-24T12:13:51.087Z,68.74
2017-05-24T12:14:52.520Z,68.54
2017-05-24T12:15:55.533Z,69.51
2017-05-24T12:16:56.044Z,67.83
2017-05-24T12:17:57.489Z,68.03
2017-05-24T12:18:58.924Z,68.70
2017-05-24T12:20:00.362Z,68.80
2017-05-24T12:21:01.799Z,68.13
2017-05-24T12:22:03.236Z,67.93
2017-05-24T12:23:04.671Z,68.41
2017-05-24T12:24:06.105Z,69.38
2017-05-24T12:25:07.541Z,68.51
2017-05-24T12:26:08.975Z,68.70
2017-05-24T12:27:10.414Z,69.41
2017-05-24T12:28:11.858Z,69.38
2017-05-24T12:29:13.780Z,70.21
2017-05-24T12:30:15.214Z,69.73
2017-05-24T12:31:16.657Z,70.21
2017-05-24T12:32:18.099Z,70.40
2017-05-24T12:33:19.542Z,71.17
2017-05-24T12:34:20.971Z,71.75
2017-05-24T12:35:22.430Z,71.81
2017-05-24T12:36:23.868Z,71.52
2017-05-24T12:37:25.310Z,72.52
2017-05-24T12:38:26.741Z,70.59
2017-05-24T12:39:28.189Z,70.11
2017-05-24T12:40:29.625Z,71.17
2017-05-24T12:41:31.064Z,69.24
2017-05-24T12:42:32.510Z,70.40
2017-05-24T12:43:33.945Z,71.46
2017-05-24T12:44:35.382Z,70.40
2017-05-24T12:45:36.813Z,69.73
2017-05-24T12:46:38.256Z,69.92
2017-05-24T12:47:39.726Z,69.63
2017-05-24T12:48:41.160Z,70.21
2017-05-24T12:49:42.624Z,69.34
2017-05-24T12:50:44.067Z,68.67
2017-05-24T12:51:45.509Z,69.38
2017-05-24T12:52:46.951Z,70.05
2017-05-24T12:53:48.381Z,69.47
2017-05-24T12:54:49.823Z,67.87
2017-05-24T12:55:51.259Z,66.81
2017-05-24T12:56:52.705Z,67.83
2017-05-24T12:57:54.190Z,69.18
2017-05-24T12:58:55.631Z,68.60
2017-05-24T12:59:57.071Z,69.47
2017-05-24T13:00:58.509Z,69.57
2017-05-24T13:01:59.957Z,70.21
2017-05-24T13:03:01.401Z,69.57
2017-05-24T13:04:02.837Z,69.47
2017-05-24T13:05:04.271Z,70.24
2017-05-24T13:06:05.714Z,69.44
2017-05-24T13:07:08.073Z,68.70
2017-05-24T13:08:09.522Z,68.99
2017-05-24T13:09:10.961Z,69.12
2017-05-24T13:10:12.404Z,68.26
2017-05-24T13:11:13.948Z,67.58
2017-05-24T13:12:15.376Z,68.16
2017-05-24T13:13:16.820Z,67.33
2017-05-24T13:14:18.283Z,66.94
2017-05-24T13:15:19.719Z,68.10
2017-05-24T13:16:21.155Z,66.17
2017-05-24T13:17:22.597Z,66.69
2017-05-24T13:18:24.996Z,64.92
2017-05-24T13:19:26.433Z,66.01
2017-05-24T13:20:27.910Z,65.05
2017-05-24T13:21:29.349Z,64.47
2017-05-24T13:22:30.783Z,64.79
2017-05-24T13:23:32.221Z,64.31
2017-05-24T13:24:33.662Z,64.56
2017-05-24T13:25:35.095Z,64.31
2017-05-24T13:26:36.531Z,63.06
2017-05-24T13:27:37.977Z,63.89
2017-05-24T13:28:39.413Z,64.76
2017-05-24T13:29:40.861Z,64.28
2017-05-24T13:30:42.385Z,65.05
2017-05-24T13:31:43.837Z,65.05
2017-05-24T13:32:45.274Z,64.40
2017-05-24T13:33:46.725Z,64.24
2017-05-24T13:34:48.163Z,64.53
2017-05-24T13:35:49.598Z,65.43
2017-05-24T13:36:51.039Z,65.43
2017-05-24T13:37:52.522Z,65.11
2017-05-24T13:38:53.984Z,65.40
2017-05-24T13:39:55.425Z,65.59
2017-05-24T13:40:56.868Z,65.11
2017-05-24T13:41:58.303Z,65.40
2017-05-24T13:42:59.737Z,66.55
2017-05-24T13:44:01.179Z,66.91
2017-05-24T13:45:02.618Z,66.91
2017-05-24T13:46:04.058Z,66.71
2017-05-24T13:47:05.511Z,66.62
2017-05-24T13:48:06.952Z,67.10
2017-05-24T13:49:08.399Z,67.29
2017-05-24T13:50:10.433Z,68.35
2017-05-24T13:51:11.878Z,68.06
2017-05-24T13:52:13.309Z,67.19
2017-05-24T13:53:14.769Z,67.39
2017-05-24T13:54:16.205Z,67.58
2017-05-24T13:55:17.691Z,68.06
2017-05-24T13:56:19.089Z,67.29
2017-05-24T13:57:20.539Z,66.85
2017-05-24T13:58:21.975Z,65.43
2017-05-24T13:59:23.415Z,66.36
2017-05-24T14:00:24.853Z,65.81
2017-05-24T14:01:26.292Z,64.47
2017-05-24T14:02:27.733Z,64.76
2017-05-24T14:03:29.167Z,65.24
2017-05-24T14:04:30.602Z,64.95
2017-05-24T14:05:32.043Z,64.50
2017-05-24T14:06:33.480Z,63.60
2017-05-24T14:07:34.913Z,63.24
2017-05-24T14:08:36.354Z,63.41
2017-05-24T14:09:37.796Z,63.24
2017-05-24T14:10:39.234Z,61.90
2017-05-24T14:11:40.676Z,62.86
2017-05-24T14:12:42.111Z,62.54
2017-05-24T14:13:43.554Z,63.79
2017-05-24T14:14:44.988Z,62.45
2017-05-24T14:15:46.434Z,62.28
2017-05-24T14:16:47.869Z,62.48
2017-05-24T14:17:49.303Z,62.54
2017-05-24T14:18:50.733Z,64.43
2017-05-24T14:19:52.171Z,63.95
2017-05-24T14:20:53.609Z,64.25
2017-05-24T14:21:55.055Z,64.34
2017-05-24T14:22:56.492Z,64.15
2017-05-24T14:23:57.926Z,64.73
2017-05-24T14:24:59.371Z,65.11
2017-05-24T14:26:00.808Z,64.43
2017-05-24T14:27:02.255Z,65.33
2017-05-24T14:28:03.687Z,64.56
2017-05-24T14:29:05.122Z,63.70
2017-05-24T14:30:06.554Z,62.35
2017-05-24T14:31:08.000Z,62.93
2017-05-24T14:32:09.434Z,63.54
2017-05-24T14:33:10.880Z,62.28
2017-05-24T14:34:12.309Z,63.24
2017-05-24T14:35:13.748Z,63.41
2017-05-24T14:36:15.182Z,63.73
2017-05-24T14:37:16.619Z,64.02
2017-05-24T14:38:18.063Z,63.31
2017-05-24T14:39:19.502Z,63.41
2017-05-24T14:40:20.929Z,63.02
2017-05-24T14:41:22.370Z,63.89
2017-05-24T14:42:23.811Z,64.66
2017-05-24T14:43:25.245Z,65.20
2017-05-24T14:44:27.603Z,65.50
2017-05-24T14:45:29.044Z,64.92
2017-05-24T14:46:30.487Z,65.98
2017-05-24T14:47:31.919Z,65.50
2017-05-24T14:48:33.369Z,65.98
2017-05-24T14:49:34.812Z,66.81
2017-05-24T14:50:36.239Z,66.04
2017-05-24T14:51:37.682Z,66.14
2017-05-24T14:52:39.113Z,66.24
2017-05-24T14:53:40.579Z,66.04
2017-05-24T14:54:42.043Z,66.04
2017-05-24T14:55:43.454Z,65.46
2017-05-24T14:56:44.895Z,64.89
2017-05-24T14:57:46.334Z,65.69
2017-05-24T14:58:47.772Z,65.11
2017-05-24T14:59:49.219Z,65.01
2017-05-24T15:00:50.650Z,66.17
2017-05-24T15:01:52.090Z,66.55
2017-05-24T15:02:53.521Z,65.62
2017-05-24T15:03:54.961Z,65.53
2017-05-24T15:04:56.407Z,64.66
2017-05-24T15:05:57.843Z,64.69
2017-05-24T15:06:59.279Z,63.89
2017-05-24T15:08:00.718Z,64.59
2017-05-24T15:09:02.156Z,63.34
2017-05-24T15:10:03.598Z,63.73
2017-05-24T15:11:05.038Z,63.92
2017-05-24T15:12:06.472Z,63.24
2017-05-24T15:13:07.909Z,64.89
2017-05-24T15:14:09.345Z,64.50
2017-05-24T15:15:10.780Z,64.21
2017-05-24T15:16:12.702Z,63.44
2017-05-24T15:17:14.144Z,63.63
2017-05-24T15:18:15.582Z,64.05
2017-05-24T15:19:17.025Z,63.44
2017-05-24T15:20:18.470Z,63.47
2017-05-24T15:21:19.913Z,64.02
2017-05-24T15:22:21.343Z,63.37
2017-05-24T15:23:22.786Z,63.54
2017-05-24T15:24:24.225Z,63.85
2017-05-24T15:25:25.676Z,64.15
2017-05-24T15:26:27.103Z,64.63
2017-05-24T15:27:28.544Z,64.15
2017-05-24T15:28:29.980Z,63.54
2017-05-24T15:29:31.419Z,64.43
2017-05-24T15:30:32.855Z,64.59
2017-05-24T15:31:34.297Z,63.60
2017-05-24T15:32:35.735Z,63.79
2017-05-24T15:33:37.174Z,64.28
2017-05-24T15:34:38.611Z,64.37
2017-05-24T15:35:40.049Z,64.56
2017-05-24T15:36:41.487Z,65.24
2017-05-24T15:37:42.925Z,65.11
2017-05-24T15:38:44.359Z,65.20
2017-05-24T15:39:45.804Z,65.50
2017-05-24T15:40:47.242Z,65.53
2017-05-24T15:41:48.682Z,65.62
2017-05-24T15:42:50.117Z,65.20
2017-05-24T15:43:51.551Z,66.07
2017-05-24T15:44:52.989Z,65.59
2017-05-24T15:45:54.439Z,65.59
2017-05-24T15:46:55.881Z,65.72
2017-05-24T15:47:57.316Z,65.05
2017-05-24T15:48:58.753Z,65.24
2017-05-24T15:50:00.190Z,65.14
2017-05-24T15:51:01.645Z,64.76
2017-05-24T15:52:03.080Z,63.79
2017-05-24T15:53:05.242Z,64.37
2017-05-24T15:54:06.714Z,63.79
2017-05-24T15:55:08.207Z,61.96
2017-05-24T15:56:09.594Z,61.38
2017-05-24T15:57:11.037Z,62.15
2017-05-24T15:58:12.477Z,62.15
2017-05-24T15:59:13.913Z,62.25
2017-05-24T16:00:15.345Z,61.48
2017-05-24T16:01:16.789Z,61.48
2017-05-24T16:02:18.239Z,61.68
2017-05-24T16:03:19.685Z,62.15
2017-05-24T16:04:21.132Z,62.45
2017-05-24T16:05:22.687Z,62.38
2017-05-24T16:06:24.127Z,61.87
2017-05-24T16:07:25.567Z,61.87
2017-05-24T16:08:27.005Z,60.83
2017-05-24T16:09:28.453Z,61.41
2017-05-24T16:10:29.874Z,60.83
2017-05-24T16:11:31.317Z,60.93
2017-05-24T16:12:32.757Z,62.15
2017-05-24T16:13:34.190Z,61.68
2017-05-24T16:14:35.633Z,61.90
2017-05-24T16:15:37.069Z,61.13
2017-05-24T16:16:38.506Z,61.61
2017-05-24T16:17:39.946Z,60.45
2017-05-24T16:18:41.382Z,60.23
2017-05-24T16:19:42.826Z,60.42
2017-05-24T16:20:44.255Z,60.42
2017-05-24T16:21:45.696Z,60.64
2017-05-24T16:22:47.140Z,60.55
2017-05-24T16:23:48.574Z,60.71